sensor_id;sensor_type;location;lat;lon;timestamp;P1;durP1;ratioP1;P2;durP2;ratioP2
3349;SDS011;1688;51.000;13.684;2023-10-08T00:01:57;6.70;;;2.03;;
3349;SDS011;1688;51.000;13.684;2023-10-08T00:04:30;8.30;;;2.57;;
3349;SDS011;1688;51.000;13.684;2023-10-08T00:07:09;3.60;;;2.20;;
3349;SDS011;1688;51.000;13.684;2023-10-08T00:09:42;5.30;;;1.93;;
3349;SDS011;1688;51.000;13.684;2023-10-08T00:12:15;7.90;;;2.10;;
3349;SDS011;1688;51.000;13.684;2023-10-08T00:14:48;2.70;;;1.73;;
3349;SDS011;1688;51.000;13.684;2023-10-08T00:17:21;5.73;;;2.07;;
3349;SDS011;1688;51.000;13.684;2023-10-08T00:19:54;3.77;;;1.90;;
3349;SDS011;1688;51.000;13.684;2023-10-08T00:22:32;4.50;;;2.50;;
3349;SDS011;1688;51.000;13.684;2023-10-08T00:25:08;3.37;;;1.90;;
3349;SDS011;1688;51.000;13.684;2023-10-08T00:27:44;5.73;;;2.50;;
3349;SDS011;1688;51.000;13.684;2023-10-08T00:30:17;5.70;;;2.63;;
3349;SDS011;1688;51.000;13.684;2023-10-08T00:32:50;6.03;;;2.20;;
3349;SDS011;1688;51.000;13.684;2023-10-08T00:35:24;3.50;;;2.17;;
3349;SDS011;1688;51.000;13.684;2023-10-08T00:37:57;5.80;;;2.80;;
3349;SDS011;1688;51.000;13.684;2023-10-08T00:40:38;5.50;;;2.10;;
3349;SDS011;1688;51.000;13.684;2023-10-08T00:43:31;5.27;;;2.37;;
3349;SDS011;1688;51.000;13.684;2023-10-08T00:46:08;5.53;;;2.53;;
3349;SDS011;1688;51.000;13.684;2023-10-08T00:49:00;5.47;;;3.27;;
3349;SDS011;1688;51.000;13.684;2023-10-08T00:51:54;5.30;;;2.37;;
3349;SDS011;1688;51.000;13.684;2023-10-08T00:54:41;5.53;;;2.63;;
3349;SDS011;1688;51.000;13.684;2023-10-08T00:57:40;5.83;;;2.13;;
3349;SDS011;1688;51.000;13.684;2023-10-08T01:00:15;3.60;;;2.50;;
3349;SDS011;1688;51.000;13.684;2023-10-08T01:02:55;4.80;;;2.50;;
3349;SDS011;1688;51.000;13.684;2023-10-08T01:05:33;4.37;;;2.40;;
3349;SDS011;1688;51.000;13.684;2023-10-08T01:08:24;7.13;;;2.57;;
3349;SDS011;1688;51.000;13.684;2023-10-08T01:11:16;7.30;;;2.40;;
3349;SDS011;1688;51.000;13.684;2023-10-08T01:13:50;6.47;;;3.33;;
3349;SDS011;1688;51.000;13.684;2023-10-08T01:16:22;5.20;;;2.40;;
3349;SDS011;1688;51.000;13.684;2023-10-08T01:18:57;4.53;;;2.60;;
3349;SDS011;1688;51.000;13.684;2023-10-08T01:21:32;8.13;;;2.97;;
3349;SDS011;1688;51.000;13.684;2023-10-08T01:24:11;15.17;;;2.50;;
3349;SDS011;1688;51.000;13.684;2023-10-08T01:26:48;4.83;;;2.80;;
3349;SDS011;1688;51.000;13.684;2023-10-08T01:29:21;12.83;;;3.60;;
3349;SDS011;1688;51.000;13.684;2023-10-08T01:31:57;3.93;;;2.67;;
3349;SDS011;1688;51.000;13.684;2023-10-08T01:34:30;4.97;;;3.47;;
3349;SDS011;1688;51.000;13.684;2023-10-08T01:37:08;4.57;;;2.63;;
3349;SDS011;1688;51.000;13.684;2023-10-08T01:39:41;5.33;;;2.33;;
3349;SDS011;1688;51.000;13.684;2023-10-08T01:42:14;4.47;;;2.70;;
3349;SDS011;1688;51.000;13.684;2023-10-08T01:44:52;4.50;;;3.00;;
3349;SDS011;1688;51.000;13.684;2023-10-08T01:47:27;4.87;;;3.23;;
3349;SDS011;1688;51.000;13.684;2023-10-08T01:50:02;4.97;;;3.00;;
3349;SDS011;1688;51.000;13.684;2023-10-08T01:52:50;13.50;;;3.03;;
3349;SDS011;1688;51.000;13.684;2023-10-08T01:55:23;7.43;;;3.30;;
3349;SDS011;1688;51.000;13.684;2023-10-08T01:57:56;4.63;;;3.07;;
3349;SDS011;1688;51.000;13.684;2023-10-08T02:00:29;9.40;;;4.63;;
3349;SDS011;1688;51.000;13.684;2023-10-08T02:03:02;3.50;;;3.10;;
3349;SDS011;1688;51.000;13.684;2023-10-08T02:05:40;8.37;;;4.37;;
3349;SDS011;1688;51.000;13.684;2023-10-08T02:08:14;3.67;;;2.83;;
3349;SDS011;1688;51.000;13.684;2023-10-08T02:10:49;2.30;;;1.63;;
3349;SDS011;1688;51.000;13.684;2023-10-08T02:13:22;1.30;;;0.90;;
3349;SDS011;1688;51.000;13.684;2023-10-08T02:15:55;1.00;;;0.77;;
3349;SDS011;1688;51.000;13.684;2023-10-08T02:18:28;1.00;;;0.67;;
3349;SDS011;1688;51.000;13.684;2023-10-08T02:21:03;0.90;;;0.57;;
3349;SDS011;1688;51.000;13.684;2023-10-08T02:23:37;0.80;;;0.60;;
3349;SDS011;1688;51.000;13.684;2023-10-08T02:26:10;0.87;;;0.57;;
3349;SDS011;1688;51.000;13.684;2023-10-08T02:28:43;0.90;;;0.57;;
3349;SDS011;1688;51.000;13.684;2023-10-08T02:31:16;0.80;;;0.50;;
3349;SDS011;1688;51.000;13.684;2023-10-08T02:33:50;0.90;;;0.60;;
3349;SDS011;1688;51.000;13.684;2023-10-08T02:36:23;0.80;;;0.53;;
3349;SDS011;1688;51.000;13.684;2023-10-08T02:38:56;0.80;;;0.50;;
3349;SDS011;1688;51.000;13.684;2023-10-08T02:41:29;0.80;;;0.50;;
3349;SDS011;1688;51.000;13.684;2023-10-08T02:44:01;0.80;;;0.60;;
3349;SDS011;1688;51.000;13.684;2023-10-08T02:46:41;0.80;;;0.50;;
3349;SDS011;1688;51.000;13.684;2023-10-08T02:49:18;0.80;;;0.50;;
3349;SDS011;1688;51.000;13.684;2023-10-08T02:51:54;0.80;;;0.50;;
3349;SDS011;1688;51.000;13.684;2023-10-08T02:54:27;0.80;;;0.50;;
3349;SDS011;1688;51.000;13.684;2023-10-08T02:57:08;1.67;;;0.83;;
3349;SDS011;1688;51.000;13.684;2023-10-08T02:59:46;0.90;;;0.60;;
3349;SDS011;1688;51.000;13.684;2023-10-08T03:02:19;0.90;;;0.60;;
3349;SDS011;1688;51.000;13.684;2023-10-08T03:04:54;0.80;;;0.50;;
3349;SDS011;1688;51.000;13.684;2023-10-08T03:07:27;0.80;;;0.50;;
3349;SDS011;1688;51.000;13.684;2023-10-08T03:10:07;0.80;;;0.50;;
3349;SDS011;1688;51.000;13.684;2023-10-08T03:12:52;1.00;;;0.60;;
3349;SDS011;1688;51.000;13.684;2023-10-08T03:15:25;1.20;;;0.60;;
3349;SDS011;1688;51.000;13.684;2023-10-08T03:18:01;0.80;;;0.50;;
3349;SDS011;1688;51.000;13.684;2023-10-08T03:20:42;0.80;;;0.50;;
3349;SDS011;1688;51.000;13.684;2023-10-08T03:23:18;0.80;;;0.50;;
3349;SDS011;1688;51.000;13.684;2023-10-08T03:26:07;0.80;;;0.50;;
3349;SDS011;1688;51.000;13.684;2023-10-08T03:28:43;0.80;;;0.60;;
3349;SDS011;1688;51.000;13.684;2023-10-08T03:31:16;0.80;;;0.50;;
3349;SDS011;1688;51.000;13.684;2023-10-08T03:33:50;0.80;;;0.50;;
3349;SDS011;1688;51.000;13.684;2023-10-08T03:36:24;0.80;;;0.50;;
3349;SDS011;1688;51.000;13.684;2023-10-08T03:39:06;0.80;;;0.47;;
3349;SDS011;1688;51.000;13.684;2023-10-08T03:41:45;0.80;;;0.50;;
3349;SDS011;1688;51.000;13.684;2023-10-08T03:44:39;0.80;;;0.50;;
3349;SDS011;1688;51.000;13.684;2023-10-08T03:47:15;0.80;;;0.50;;
3349;SDS011;1688;51.000;13.684;2023-10-08T03:49:50;0.80;;;0.50;;
3349;SDS011;1688;51.000;13.684;2023-10-08T03:52:24;0.80;;;0.50;;
3349;SDS011;1688;51.000;13.684;2023-10-08T03:54:58;0.80;;;0.50;;
3349;SDS011;1688;51.000;13.684;2023-10-08T03:57:45;0.80;;;0.60;;
3349;SDS011;1688;51.000;13.684;2023-10-08T04:00:21;0.80;;;0.50;;
3349;SDS011;1688;51.000;13.684;2023-10-08T04:03:01;0.80;;;0.67;;
3349;SDS011;1688;51.000;13.684;2023-10-08T04:05:40;1.00;;;0.60;;
3349;SDS011;1688;51.000;13.684;2023-10-08T04:08:36;1.47;;;0.60;;
3349;SDS011;1688;51.000;13.684;2023-10-08T04:11:15;0.80;;;0.50;;
3349;SDS011;1688;51.000;13.684;2023-10-08T04:14:04;0.80;;;0.60;;
3349;SDS011;1688;51.000;13.684;2023-10-08T04:16:37;1.87;;;1.10;;
3349;SDS011;1688;51.000;13.684;2023-10-08T04:19:11;3.63;;;0.83;;
3349;SDS011;1688;51.000;13.684;2023-10-08T04:21:44;1.20;;;0.70;;
3349;SDS011;1688;51.000;13.684;2023-10-08T04:24:25;2.20;;;1.53;;
3349;SDS011;1688;51.000;13.684;2023-10-08T04:27:07;7.87;;;1.90;;
3349;SDS011;1688;51.000;13.684;2023-10-08T04:29:42;1.67;;;1.30;;
3349;SDS011;1688;51.000;13.684;2023-10-08T04:32:15;1.30;;;0.53;;
3349;SDS011;1688;51.000;13.684;2023-10-08T04:34:55;0.80;;;0.70;;
3349;SDS011;1688;51.000;13.684;2023-10-08T04:37:29;1.37;;;0.80;;
3349;SDS011;1688;51.000;13.684;2023-10-08T04:40:06;1.23;;;0.70;;
3349;SDS011;1688;51.000;13.684;2023-10-08T04:42:48;1.57;;;0.57;;
3349;SDS011;1688;51.000;13.684;2023-10-08T04:45:21;1.30;;;0.90;;
3349;SDS011;1688;51.000;13.684;2023-10-08T04:47:58;1.30;;;0.80;;
3349;SDS011;1688;51.000;13.684;2023-10-08T04:50:32;1.40;;;1.03;;
3349;SDS011;1688;51.000;13.684;2023-10-08T04:53:04;1.30;;;0.93;;
3349;SDS011;1688;51.000;13.684;2023-10-08T04:55:40;3.23;;;0.80;;
3349;SDS011;1688;51.000;13.684;2023-10-08T04:58:20;3.63;;;1.70;;
3349;SDS011;1688;51.000;13.684;2023-10-08T05:01:03;1.53;;;0.80;;
3349;SDS011;1688;51.000;13.684;2023-10-08T05:03:56;1.30;;;0.87;;
3349;SDS011;1688;51.000;13.684;2023-10-08T05:06:30;1.23;;;0.60;;
3349;SDS011;1688;51.000;13.684;2023-10-08T05:09:09;1.83;;;1.17;;
3349;SDS011;1688;51.000;13.684;2023-10-08T05:11:44;0.80;;;0.50;;
3349;SDS011;1688;51.000;13.684;2023-10-08T05:14:24;2.20;;;1.13;;
3349;SDS011;1688;51.000;13.684;2023-10-08T05:17:07;0.80;;;0.40;;
3349;SDS011;1688;51.000;13.684;2023-10-08T05:19:54;0.80;;;0.43;;
3349;SDS011;1688;51.000;13.684;2023-10-08T05:22:45;0.80;;;0.40;;
3349;SDS011;1688;51.000;13.684;2023-10-08T05:25:27;0.80;;;0.40;;
3349;SDS011;1688;51.000;13.684;2023-10-08T05:28:12;0.80;;;0.40;;
3349;SDS011;1688;51.000;13.684;2023-10-08T05:30:57;0.80;;;0.40;;
3349;SDS011;1688;51.000;13.684;2023-10-08T05:34:02;0.80;;;0.50;;
3349;SDS011;1688;51.000;13.684;2023-10-08T05:36:35;0.80;;;0.50;;
3349;SDS011;1688;51.000;13.684;2023-10-08T05:39:22;0.80;;;0.40;;
3349;SDS011;1688;51.000;13.684;2023-10-08T05:42:13;0.80;;;0.40;;
3349;SDS011;1688;51.000;13.684;2023-10-08T05:44:52;0.80;;;0.43;;
3349;SDS011;1688;51.000;13.684;2023-10-08T05:47:40;0.80;;;0.40;;
3349;SDS011;1688;51.000;13.684;2023-10-08T05:50:33;0.80;;;0.40;;
3349;SDS011;1688;51.000;13.684;2023-10-08T05:53:14;0.80;;;0.40;;
3349;SDS011;1688;51.000;13.684;2023-10-08T05:56:05;0.80;;;0.40;;
3349;SDS011;1688;51.000;13.684;2023-10-08T05:58:49;0.80;;;0.40;;
3349;SDS011;1688;51.000;13.684;2023-10-08T06:01:32;0.80;;;0.40;;
3349;SDS011;1688;51.000;13.684;2023-10-08T06:04:14;0.80;;;0.40;;
3349;SDS011;1688;51.000;13.684;2023-10-08T06:07:03;0.80;;;0.40;;
3349;SDS011;1688;51.000;13.684;2023-10-08T06:09:49;0.80;;;0.40;;
3349;SDS011;1688;51.000;13.684;2023-10-08T06:12:48;0.80;;;0.40;;
3349;SDS011;1688;51.000;13.684;2023-10-08T06:15:37;0.80;;;0.40;;
3349;SDS011;1688;51.000;13.684;2023-10-08T06:18:31;0.80;;;0.43;;
3349;SDS011;1688;51.000;13.684;2023-10-08T06:21:05;0.80;;;0.40;;
3349;SDS011;1688;51.000;13.684;2023-10-08T06:23:43;0.80;;;0.40;;
3349;SDS011;1688;51.000;13.684;2023-10-08T06:26:19;0.80;;;0.40;;
3349;SDS011;1688;51.000;13.684;2023-10-08T06:28:57;0.80;;;0.40;;
3349;SDS011;1688;51.000;13.684;2023-10-08T06:31:31;0.80;;;0.50;;
3349;SDS011;1688;51.000;13.684;2023-10-08T06:34:08;0.80;;;0.40;;
3349;SDS011;1688;51.000;13.684;2023-10-08T06:36:42;0.80;;;0.40;;
3349;SDS011;1688;51.000;13.684;2023-10-08T06:39:15;0.80;;;0.40;;
3349;SDS011;1688;51.000;13.684;2023-10-08T06:41:52;0.80;;;0.40;;
3349;SDS011;1688;51.000;13.684;2023-10-08T06:44:25;0.80;;;0.40;;
3349;SDS011;1688;51.000;13.684;2023-10-08T06:47:00;0.80;;;0.50;;
3349;SDS011;1688;51.000;13.684;2023-10-08T06:49:33;0.80;;;0.40;;
3349;SDS011;1688;51.000;13.684;2023-10-08T06:52:05;0.80;;;0.50;;
3349;SDS011;1688;51.000;13.684;2023-10-08T06:54:43;0.80;;;0.40;;
3349;SDS011;1688;51.000;13.684;2023-10-08T06:57:16;0.80;;;0.50;;
3349;SDS011;1688;51.000;13.684;2023-10-08T06:59:52;0.80;;;0.40;;
3349;SDS011;1688;51.000;13.684;2023-10-08T07:02:25;0.80;;;0.40;;
3349;SDS011;1688;51.000;13.684;2023-10-08T07:04:59;0.80;;;0.50;;
3349;SDS011;1688;51.000;13.684;2023-10-08T07:07:32;0.80;;;0.40;;
3349;SDS011;1688;51.000;13.684;2023-10-08T07:10:11;0.80;;;0.50;;
3349;SDS011;1688;51.000;13.684;2023-10-08T07:12:44;0.80;;;0.40;;
3349;SDS011;1688;51.000;13.684;2023-10-08T07:15:19;0.80;;;0.40;;
3349;SDS011;1688;51.000;13.684;2023-10-08T07:17:56;0.80;;;0.40;;
3349;SDS011;1688;51.000;13.684;2023-10-08T07:20:44;0.80;;;0.40;;
3349;SDS011;1688;51.000;13.684;2023-10-08T07:23:18;0.80;;;0.40;;
3349;SDS011;1688;51.000;13.684;2023-10-08T07:25:52;0.80;;;0.40;;
3349;SDS011;1688;51.000;13.684;2023-10-08T07:28:43;0.80;;;0.40;;
3349;SDS011;1688;51.000;13.684;2023-10-08T07:31:19;0.80;;;0.40;;
3349;SDS011;1688;51.000;13.684;2023-10-08T07:33:54;0.80;;;0.40;;
3349;SDS011;1688;51.000;13.684;2023-10-08T07:36:29;0.80;;;0.50;;
3349;SDS011;1688;51.000;13.684;2023-10-08T07:39:05;0.80;;;0.40;;
3349;SDS011;1688;51.000;13.684;2023-10-08T07:41:41;0.80;;;0.40;;
3349;SDS011;1688;51.000;13.684;2023-10-08T07:44:17;0.80;;;0.40;;
3349;SDS011;1688;51.000;13.684;2023-10-08T07:46:55;0.80;;;0.50;;
3349;SDS011;1688;51.000;13.684;2023-10-08T07:49:29;0.80;;;0.40;;
3349;SDS011;1688;51.000;13.684;2023-10-08T07:52:03;0.80;;;0.50;;
3349;SDS011;1688;51.000;13.684;2023-10-08T07:54:37;0.80;;;0.40;;
3349;SDS011;1688;51.000;13.684;2023-10-08T07:57:10;0.80;;;0.60;;
3349;SDS011;1688;51.000;13.684;2023-10-08T08:00:10;0.80;;;0.43;;
3349;SDS011;1688;51.000;13.684;2023-10-08T08:02:56;0.80;;;0.50;;
3349;SDS011;1688;51.000;13.684;2023-10-08T08:05:30;0.80;;;0.40;;
3349;SDS011;1688;51.000;13.684;2023-10-08T08:08:03;0.80;;;0.40;;
3349;SDS011;1688;51.000;13.684;2023-10-08T08:10:38;0.80;;;0.40;;
3349;SDS011;1688;51.000;13.684;2023-10-08T08:13:11;0.80;;;0.40;;
3349;SDS011;1688;51.000;13.684;2023-10-08T08:15:47;0.80;;;0.50;;
3349;SDS011;1688;51.000;13.684;2023-10-08T08:18:26;0.80;;;0.40;;
3349;SDS011;1688;51.000;13.684;2023-10-08T08:21:08;0.80;;;0.40;;
3349;SDS011;1688;51.000;13.684;2023-10-08T08:23:47;0.80;;;0.40;;
3349;SDS011;1688;51.000;13.684;2023-10-08T08:26:21;0.80;;;0.40;;
3349;SDS011;1688;51.000;13.684;2023-10-08T08:28:59;0.80;;;0.50;;
3349;SDS011;1688;51.000;13.684;2023-10-08T08:31:34;0.80;;;0.40;;
3349;SDS011;1688;51.000;13.684;2023-10-08T08:34:07;0.80;;;0.50;;
3349;SDS011;1688;51.000;13.684;2023-10-08T08:36:46;0.80;;;0.50;;
3349;SDS011;1688;51.000;13.684;2023-10-08T08:39:21;0.80;;;0.40;;
3349;SDS011;1688;51.000;13.684;2023-10-08T08:42:07;0.80;;;0.50;;
3349;SDS011;1688;51.000;13.684;2023-10-08T08:44:41;0.80;;;0.40;;
3349;SDS011;1688;51.000;13.684;2023-10-08T08:47:23;0.80;;;0.40;;
3349;SDS011;1688;51.000;13.684;2023-10-08T08:50:01;0.80;;;0.40;;
3349;SDS011;1688;51.000;13.684;2023-10-08T08:52:41;0.80;;;0.40;;
3349;SDS011;1688;51.000;13.684;2023-10-08T08:55:14;0.80;;;0.40;;
3349;SDS011;1688;51.000;13.684;2023-10-08T08:57:50;0.80;;;0.40;;
3349;SDS011;1688;51.000;13.684;2023-10-08T09:00:23;0.80;;;0.50;;
3349;SDS011;1688;51.000;13.684;2023-10-08T09:03:01;0.80;;;0.40;;
3349;SDS011;1688;51.000;13.684;2023-10-08T09:05:37;0.80;;;0.40;;
3349;SDS011;1688;51.000;13.684;2023-10-08T09:08:13;0.80;;;0.40;;
3349;SDS011;1688;51.000;13.684;2023-10-08T09:10:49;0.80;;;0.40;;
3349;SDS011;1688;51.000;13.684;2023-10-08T09:13:25;0.80;;;0.50;;
3349;SDS011;1688;51.000;13.684;2023-10-08T09:16:07;0.80;;;0.40;;
3349;SDS011;1688;51.000;13.684;2023-10-08T09:18:48;0.80;;;0.40;;
3349;SDS011;1688;51.000;13.684;2023-10-08T09:21:22;0.80;;;0.50;;
3349;SDS011;1688;51.000;13.684;2023-10-08T09:23:55;0.80;;;0.40;;
3349;SDS011;1688;51.000;13.684;2023-10-08T09:26:28;0.80;;;0.40;;
3349;SDS011;1688;51.000;13.684;2023-10-08T09:29:01;0.80;;;0.40;;
3349;SDS011;1688;51.000;13.684;2023-10-08T09:31:37;2.30;;;2.20;;
3349;SDS011;1688;51.000;13.684;2023-10-08T09:34:10;0.80;;;0.40;;
3349;SDS011;1688;51.000;13.684;2023-10-08T09:36:49;0.80;;;0.40;;
3349;SDS011;1688;51.000;13.684;2023-10-08T09:39:22;0.80;;;0.40;;
3349;SDS011;1688;51.000;13.684;2023-10-08T09:41:56;0.80;;;0.40;;
3349;SDS011;1688;51.000;13.684;2023-10-08T09:44:29;0.80;;;0.50;;
3349;SDS011;1688;51.000;13.684;2023-10-08T09:47:03;0.80;;;0.40;;
3349;SDS011;1688;51.000;13.684;2023-10-08T09:52:54;0.80;;;0.50;;
3349;SDS011;1688;51.000;13.684;2023-10-08T09:55:53;0.80;;;0.40;;
3349;SDS011;1688;51.000;13.684;2023-10-08T09:58:28;0.80;;;0.40;;
3349;SDS011;1688;51.000;13.684;2023-10-08T10:01:01;0.80;;;0.40;;
3349;SDS011;1688;51.000;13.684;2023-10-08T10:03:36;0.80;;;0.40;;
3349;SDS011;1688;51.000;13.684;2023-10-08T10:06:13;0.80;;;0.50;;
3349;SDS011;1688;51.000;13.684;2023-10-08T10:08:48;0.80;;;0.40;;
3349;SDS011;1688;51.000;13.684;2023-10-08T10:11:21;0.80;;;0.50;;
3349;SDS011;1688;51.000;13.684;2023-10-08T10:13:59;0.80;;;0.40;;
3349;SDS011;1688;51.000;13.684;2023-10-08T10:16:37;0.80;;;0.40;;
3349;SDS011;1688;51.000;13.684;2023-10-08T10:19:17;0.80;;;0.40;;
3349;SDS011;1688;51.000;13.684;2023-10-08T10:21:52;0.80;;;0.40;;
3349;SDS011;1688;51.000;13.684;2023-10-08T10:24:37;0.80;;;0.50;;
3349;SDS011;1688;51.000;13.684;2023-10-08T10:27:14;0.80;;;0.40;;
3349;SDS011;1688;51.000;13.684;2023-10-08T10:29:48;0.83;;;0.60;;
3349;SDS011;1688;51.000;13.684;2023-10-08T10:32:21;0.80;;;0.40;;
3349;SDS011;1688;51.000;13.684;2023-10-08T10:34:53;0.80;;;0.50;;
3349;SDS011;1688;51.000;13.684;2023-10-08T10:37:27;0.80;;;0.40;;
3349;SDS011;1688;51.000;13.684;2023-10-08T10:40:13;0.80;;;0.47;;
3349;SDS011;1688;51.000;13.684;2023-10-08T10:42:47;0.80;;;0.50;;
3349;SDS011;1688;51.000;13.684;2023-10-08T10:45:28;0.80;;;0.50;;
3349;SDS011;1688;51.000;13.684;2023-10-08T10:48:19;0.80;;;0.40;;
3349;SDS011;1688;51.000;13.684;2023-10-08T10:50:53;0.80;;;0.50;;
3349;SDS011;1688;51.000;13.684;2023-10-08T10:53:38;0.80;;;0.50;;
3349;SDS011;1688;51.000;13.684;2023-10-08T10:56:29;0.80;;;0.43;;
3349;SDS011;1688;51.000;13.684;2023-10-08T10:59:02;0.80;;;0.40;;
3349;SDS011;1688;51.000;13.684;2023-10-08T11:01:53;0.80;;;0.50;;
3349;SDS011;1688;51.000;13.684;2023-10-08T11:04:50;0.80;;;0.50;;
3349;SDS011;1688;51.000;13.684;2023-10-08T11:07:23;0.83;;;0.60;;
3349;SDS011;1688;51.000;13.684;2023-10-08T11:09:56;0.80;;;0.50;;
3349;SDS011;1688;51.000;13.684;2023-10-08T11:12:30;0.80;;;0.50;;
3349;SDS011;1688;51.000;13.684;2023-10-08T11:15:15;0.87;;;0.50;;
3349;SDS011;1688;51.000;13.684;2023-10-08T11:17:49;0.80;;;0.50;;
3349;SDS011;1688;51.000;13.684;2023-10-08T11:20:26;0.90;;;0.50;;
3349;SDS011;1688;51.000;13.684;2023-10-08T11:22:59;0.80;;;0.40;;
3349;SDS011;1688;51.000;13.684;2023-10-08T11:25:57;0.80;;;0.40;;
3349;SDS011;1688;51.000;13.684;2023-10-08T11:28:37;0.83;;;0.50;;
3349;SDS011;1688;51.000;13.684;2023-10-08T11:31:15;0.87;;;0.60;;
3349;SDS011;1688;51.000;13.684;2023-10-08T11:33:52;0.80;;;0.40;;
3349;SDS011;1688;51.000;13.684;2023-10-08T11:36:30;0.80;;;0.50;;
3349;SDS011;1688;51.000;13.684;2023-10-08T11:39:15;0.80;;;0.50;;
3349;SDS011;1688;51.000;13.684;2023-10-08T11:41:54;0.80;;;0.40;;
3349;SDS011;1688;51.000;13.684;2023-10-08T11:44:36;0.80;;;0.40;;
3349;SDS011;1688;51.000;13.684;2023-10-08T11:47:09;0.80;;;0.50;;
3349;SDS011;1688;51.000;13.684;2023-10-08T11:49:53;0.80;;;0.50;;
3349;SDS011;1688;51.000;13.684;2023-10-08T11:52:42;0.80;;;0.50;;
3349;SDS011;1688;51.000;13.684;2023-10-08T11:55:15;0.80;;;0.40;;
3349;SDS011;1688;51.000;13.684;2023-10-08T11:57:51;0.80;;;0.50;;
3349;SDS011;1688;51.000;13.684;2023-10-08T12:00:24;0.90;;;0.50;;
3349;SDS011;1688;51.000;13.684;2023-10-08T12:03:04;0.80;;;0.40;;
3349;SDS011;1688;51.000;13.684;2023-10-08T12:05:38;0.80;;;0.40;;
3349;SDS011;1688;51.000;13.684;2023-10-08T12:08:19;0.80;;;0.40;;
3349;SDS011;1688;51.000;13.684;2023-10-08T12:10:55;0.80;;;0.50;;
3349;SDS011;1688;51.000;13.684;2023-10-08T12:13:28;0.80;;;0.40;;
3349;SDS011;1688;51.000;13.684;2023-10-08T12:16:01;0.80;;;0.40;;
3349;SDS011;1688;51.000;13.684;2023-10-08T12:18:45;0.80;;;0.50;;
3349;SDS011;1688;51.000;13.684;2023-10-08T12:21:21;0.80;;;0.40;;
3349;SDS011;1688;51.000;13.684;2023-10-08T12:23:54;0.80;;;0.50;;
3349;SDS011;1688;51.000;13.684;2023-10-08T12:26:27;0.80;;;0.40;;
3349;SDS011;1688;51.000;13.684;2023-10-08T12:29:00;0.80;;;0.40;;
3349;SDS011;1688;51.000;13.684;2023-10-08T12:31:34;0.80;;;0.50;;
3349;SDS011;1688;51.000;13.684;2023-10-08T12:34:07;0.87;;;0.50;;
3349;SDS011;1688;51.000;13.684;2023-10-08T12:36:44;0.80;;;0.50;;
3349;SDS011;1688;51.000;13.684;2023-10-08T12:39:20;0.80;;;0.50;;
3349;SDS011;1688;51.000;13.684;2023-10-08T12:41:57;0.80;;;0.43;;
3349;SDS011;1688;51.000;13.684;2023-10-08T12:44:37;0.80;;;0.50;;
3349;SDS011;1688;51.000;13.684;2023-10-08T12:47:10;0.87;;;0.47;;
3349;SDS011;1688;51.000;13.684;2023-10-08T12:49:45;0.80;;;0.50;;
3349;SDS011;1688;51.000;13.684;2023-10-08T12:52:19;0.83;;;0.50;;
3349;SDS011;1688;51.000;13.684;2023-10-08T12:54:52;0.90;;;0.50;;
3349;SDS011;1688;51.000;13.684;2023-10-08T12:57:25;0.90;;;0.60;;
3349;SDS011;1688;51.000;13.684;2023-10-08T13:00:04;0.90;;;0.40;;
3349;SDS011;1688;51.000;13.684;2023-10-08T13:02:38;0.90;;;0.50;;
3349;SDS011;1688;51.000;13.684;2023-10-08T13:05:14;0.90;;;0.43;;
3349;SDS011;1688;51.000;13.684;2023-10-08T13:07:49;0.90;;;0.47;;
3349;SDS011;1688;51.000;13.684;2023-10-08T13:10:22;0.90;;;0.50;;
3349;SDS011;1688;51.000;13.684;2023-10-08T13:12:55;0.93;;;0.83;;
3349;SDS011;1688;51.000;13.684;2023-10-08T13:15:29;0.90;;;0.50;;
3349;SDS011;1688;51.000;13.684;2023-10-08T13:18:07;0.80;;;0.50;;
3349;SDS011;1688;51.000;13.684;2023-10-08T13:20:41;0.90;;;0.50;;
3349;SDS011;1688;51.000;13.684;2023-10-08T13:23:17;0.90;;;0.50;;
3349;SDS011;1688;51.000;13.684;2023-10-08T13:25:55;0.90;;;0.50;;
3349;SDS011;1688;51.000;13.684;2023-10-08T13:28:30;0.90;;;0.50;;
3349;SDS011;1688;51.000;13.684;2023-10-08T13:31:05;0.90;;;0.50;;
3349;SDS011;1688;51.000;13.684;2023-10-08T13:33:44;0.90;;;0.50;;
3349;SDS011;1688;51.000;13.684;2023-10-08T13:36:21;0.90;;;0.50;;
3349;SDS011;1688;51.000;13.684;2023-10-08T13:38:56;0.90;;;0.50;;
3349;SDS011;1688;51.000;13.684;2023-10-08T13:41:29;0.90;;;0.47;;
3349;SDS011;1688;51.000;13.684;2023-10-08T13:44:01;0.90;;;0.50;;
3349;SDS011;1688;51.000;13.684;2023-10-08T13:46:37;0.83;;;0.50;;
3349;SDS011;1688;51.000;13.684;2023-10-08T13:49:15;0.90;;;0.50;;
3349;SDS011;1688;51.000;13.684;2023-10-08T13:51:49;0.90;;;0.50;;
3349;SDS011;1688;51.000;13.684;2023-10-08T13:54:29;0.80;;;0.40;;
3349;SDS011;1688;51.000;13.684;2023-10-08T13:57:03;0.90;;;0.50;;
3349;SDS011;1688;51.000;13.684;2023-10-08T13:59:36;0.90;;;0.40;;
3349;SDS011;1688;51.000;13.684;2023-10-08T14:02:10;0.87;;;0.50;;
3349;SDS011;1688;51.000;13.684;2023-10-08T14:04:53;0.90;;;0.50;;
3349;SDS011;1688;51.000;13.684;2023-10-08T14:07:26;0.90;;;0.50;;
3349;SDS011;1688;51.000;13.684;2023-10-08T14:09:59;0.90;;;0.40;;
3349;SDS011;1688;51.000;13.684;2023-10-08T14:12:37;0.90;;;0.40;;
3349;SDS011;1688;51.000;13.684;2023-10-08T14:15:12;0.90;;;0.50;;
3349;SDS011;1688;51.000;13.684;2023-10-08T14:17:47;0.90;;;0.40;;
3349;SDS011;1688;51.000;13.684;2023-10-08T14:20:26;0.80;;;0.50;;
3349;SDS011;1688;51.000;13.684;2023-10-08T14:23:04;0.90;;;0.40;;
3349;SDS011;1688;51.000;13.684;2023-10-08T14:25:38;0.90;;;0.50;;
3349;SDS011;1688;51.000;13.684;2023-10-08T14:28:17;0.83;;;0.50;;
3349;SDS011;1688;51.000;13.684;2023-10-08T14:31:13;0.90;;;0.50;;
3349;SDS011;1688;51.000;13.684;2023-10-08T14:33:49;0.90;;;0.50;;
3349;SDS011;1688;51.000;13.684;2023-10-08T14:36:32;0.90;;;0.50;;
3349;SDS011;1688;51.000;13.684;2023-10-08T14:39:23;0.90;;;0.50;;
3349;SDS011;1688;51.000;13.684;2023-10-08T14:42:15;0.90;;;0.50;;
3349;SDS011;1688;51.000;13.684;2023-10-08T14:45:07;0.90;;;0.50;;
3349;SDS011;1688;51.000;13.684;2023-10-08T14:47:43;0.90;;;0.50;;
3349;SDS011;1688;51.000;13.684;2023-10-08T14:50:17;0.87;;;0.50;;
3349;SDS011;1688;51.000;13.684;2023-10-08T14:52:50;0.90;;;0.50;;
3349;SDS011;1688;51.000;13.684;2023-10-08T14:55:23;0.90;;;0.50;;
3349;SDS011;1688;51.000;13.684;2023-10-08T14:57:56;0.90;;;0.50;;
3349;SDS011;1688;51.000;13.684;2023-10-08T15:00:29;0.90;;;0.50;;
3349;SDS011;1688;51.000;13.684;2023-10-08T15:03:04;0.90;;;0.50;;
3349;SDS011;1688;51.000;13.684;2023-10-08T15:05:37;0.90;;;0.50;;
3349;SDS011;1688;51.000;13.684;2023-10-08T15:08:12;0.90;;;0.50;;
3349;SDS011;1688;51.000;13.684;2023-10-08T15:10:46;0.90;;;0.50;;
3349;SDS011;1688;51.000;13.684;2023-10-08T15:13:19;0.90;;;0.50;;
3349;SDS011;1688;51.000;13.684;2023-10-08T15:15:52;0.90;;;0.50;;
3349;SDS011;1688;51.000;13.684;2023-10-08T15:18:26;0.90;;;0.50;;
3349;SDS011;1688;51.000;13.684;2023-10-08T15:21:05;0.90;;;0.50;;
3349;SDS011;1688;51.000;13.684;2023-10-08T15:23:39;0.90;;;0.50;;
3349;SDS011;1688;51.000;13.684;2023-10-08T15:26:12;0.90;;;0.80;;
3349;SDS011;1688;51.000;13.684;2023-10-08T15:28:45;0.90;;;0.43;;
3349;SDS011;1688;51.000;13.684;2023-10-08T15:31:18;0.90;;;0.50;;
3349;SDS011;1688;51.000;13.684;2023-10-08T15:33:51;0.90;;;0.47;;
3349;SDS011;1688;51.000;13.684;2023-10-08T15:36:26;0.90;;;0.50;;
3349;SDS011;1688;51.000;13.684;2023-10-08T15:38:59;1.00;;;0.63;;
3349;SDS011;1688;51.000;13.684;2023-10-08T15:41:31;3.17;;;2.20;;
3349;SDS011;1688;51.000;13.684;2023-10-08T15:44:07;8.90;;;2.70;;
3349;SDS011;1688;51.000;13.684;2023-10-08T15:46:40;1.30;;;1.20;;
3349;SDS011;1688;51.000;13.684;2023-10-08T15:49:14;4.83;;;1.93;;
3349;SDS011;1688;51.000;13.684;2023-10-08T15:51:53;9.90;;;2.43;;
3349;SDS011;1688;51.000;13.684;2023-10-08T15:54:26;3.50;;;1.87;;
3349;SDS011;1688;51.000;13.684;2023-10-08T15:56:59;3.47;;;2.00;;
3349;SDS011;1688;51.000;13.684;2023-10-08T15:59:31;2.53;;;1.77;;
3349;SDS011;1688;51.000;13.684;2023-10-08T16:02:04;3.00;;;1.50;;
3349;SDS011;1688;51.000;13.684;2023-10-08T16:04:37;2.87;;;1.40;;
3349;SDS011;1688;51.000;13.684;2023-10-08T16:07:10;2.97;;;1.67;;